sensor_id;sensor_type;location;lat;lon;timestamp;P1;P2;P0
47705;PMS5003;33471;52.104;1.318;2023-02-15T00:01:27;69;61;
47705;PMS5003;33471;52.104;1.318;2023-02-15T00:03:54;69;62;
47705;PMS5003;33471;52.104;1.318;2023-02-15T00:06:22;65;58;
47705;PMS5003;33471;52.104;1.318;2023-02-15T00:08:49;61;56;
47705;PMS5003;33471;52.104;1.318;2023-02-15T00:11:17;66;62;
47705;PMS5003;33471;52.104;1.318;2023-02-15T00:13:45;61;54;
47705;PMS5003;33471;52.104;1.318;2023-02-15T00:16:12;65;57;
47705;PMS5003;33471;52.104;1.318;2023-02-15T00:18:39;60;52;
47705;PMS5003;33471;52.104;1.318;2023-02-15T00:21:07;61;59;
47705;PMS5003;33471;52.104;1.318;2023-02-15T00:23:36;68;60;
47705;PMS5003;33471;52.104;1.318;2023-02-15T00:26:04;77;66;
47705;PMS5003;33471;52.104;1.318;2023-02-15T00:28:32;78;65;
47705;PMS5003;33471;52.104;1.318;2023-02-15T00:31:03;72;60;
47705;PMS5003;33471;52.104;1.318;2023-02-15T00:33:32;75;64;
47705;PMS5003;33471;52.104;1.318;2023-02-15T00:36:00;76;68;
47705;PMS5003;33471;52.104;1.318;2023-02-15T00:38:33;68;65;
47705;PMS5003;33471;52.104;1.318;2023-02-15T00:41:02;74;68;
47705;PMS5003;33471;52.104;1.318;2023-02-15T00:43:32;78;62;
47705;PMS5003;33471;52.104;1.318;2023-02-15T00:46:00;73;62;
47705;PMS5003;33471;52.104;1.318;2023-02-15T00:48:28;67;59;
47705;PMS5003;33471;52.104;1.318;2023-02-15T00:50:56;67;65;
47705;PMS5003;33471;52.104;1.318;2023-02-15T00:53:25;65;61;
47705;PMS5003;33471;52.104;1.318;2023-02-15T00:55:53;74;64;
47705;PMS5003;33471;52.104;1.318;2023-02-15T00:58:20;65;56;
47705;PMS5003;33471;52.104;1.318;2023-02-15T01:00:48;72;63;
47705;PMS5003;33471;52.104;1.318;2023-02-15T01:03:16;72;69;
47705;PMS5003;33471;52.104;1.318;2023-02-15T01:05:46;64;60;
47705;PMS5003;33471;52.104;1.318;2023-02-15T01:08:14;69;59;
47705;PMS5003;33471;52.104;1.318;2023-02-15T01:10:42;67;60;
47705;PMS5003;33471;52.104;1.318;2023-02-15T01:13:09;72;66;
47705;PMS5003;33471;52.104;1.318;2023-02-15T01:15:37;67;60;
47705;PMS5003;33471;52.104;1.318;2023-02-15T01:18:04;71;63;
47705;PMS5003;33471;52.104;1.318;2023-02-15T01:20:34;73;66;
47705;PMS5003;33471;52.104;1.318;2023-02-15T01:23:02;62;57;
47705;PMS5003;33471;52.104;1.318;2023-02-15T01:25:30;73;69;
47705;PMS5003;33471;52.104;1.318;2023-02-15T01:27:59;63;57;
47705;PMS5003;33471;52.104;1.318;2023-02-15T01:30:27;66;61;
47705;PMS5003;33471;52.104;1.318;2023-02-15T01:32:55;56;54;
47705;PMS5003;33471;52.104;1.318;2023-02-15T01:35:23;64;58;
47705;PMS5003;33471;52.104;1.318;2023-02-15T01:37:50;70;62;
47705;PMS5003;33471;52.104;1.318;2023-02-15T01:40:18;74;65;
47705;PMS5003;33471;52.104;1.318;2023-02-15T01:42:45;94;77;
47705;PMS5003;33471;52.104;1.318;2023-02-15T01:45:18;72;68;
47705;PMS5003;33471;52.104;1.318;2023-02-15T01:47:48;78;72;
47705;PMS5003;33471;52.104;1.318;2023-02-15T01:50:20;97;82;
47705;PMS5003;33471;52.104;1.318;2023-02-15T01:52:52;87;80;
47705;PMS5003;33471;52.104;1.318;2023-02-15T01:55:25;91;81;
47705;PMS5003;33471;52.104;1.318;2023-02-15T01:57:57;93;80;
47705;PMS5003;33471;52.104;1.318;2023-02-15T02:00:25;99;83;
47705;PMS5003;33471;52.104;1.318;2023-02-15T02:02:53;100;85;
47705;PMS5003;33471;52.104;1.318;2023-02-15T02:05:23;77;70;
47705;PMS5003;33471;52.104;1.318;2023-02-15T02:07:52;80;75;
47705;PMS5003;33471;52.104;1.318;2023-02-15T02:10:24;80;72;
47705;PMS5003;33471;52.104;1.318;2023-02-15T02:12:52;78;73;
47705;PMS5003;33471;52.104;1.318;2023-02-15T02:15:27;90;83;
47705;PMS5003;33471;52.104;1.318;2023-02-15T02:18:04;87;76;
47705;PMS5003;33471;52.104;1.318;2023-02-15T02:21:23;90;77;
47705;PMS5003;33471;52.104;1.318;2023-02-15T02:24:10;74;70;
47705;PMS5003;33471;52.104;1.318;2023-02-15T02:27:18;91;77;
47705;PMS5003;33471;52.104;1.318;2023-02-15T02:31:12;89;76;
47705;PMS5003;33471;52.104;1.318;2023-02-15T02:34:00;72;67;
47705;PMS5003;33471;52.104;1.318;2023-02-15T02:36:32;77;74;
47705;PMS5003;33471;52.104;1.318;2023-02-15T02:39:09;73;68;
47705;PMS5003;33471;52.104;1.318;2023-02-15T02:41:49;75;72;
47705;PMS5003;33471;52.104;1.318;2023-02-15T02:44:23;87;77;
47705;PMS5003;33471;52.104;1.318;2023-02-15T02:46:57;78;67;
47705;PMS5003;33471;52.104;1.318;2023-02-15T02:49:29;83;76;
47705;PMS5003;33471;52.104;1.318;2023-02-15T02:51:58;75;71;
47705;PMS5003;33471;52.104;1.318;2023-02-15T02:54:26;85;76;
47705;PMS5003;33471;52.104;1.318;2023-02-15T02:56:54;85;74;
47705;PMS5003;33471;52.104;1.318;2023-02-15T02:59:25;92;81;
47705;PMS5003;33471;52.104;1.318;2023-02-15T03:01:57;90;83;
47705;PMS5003;33471;52.104;1.318;2023-02-15T03:04:32;87;80;
47705;PMS5003;33471;52.104;1.318;2023-02-15T03:07:04;87;75;
47705;PMS5003;33471;52.104;1.318;2023-02-15T03:09:35;86;76;
47705;PMS5003;33471;52.104;1.318;2023-02-15T03:12:05;85;75;
47705;PMS5003;33471;52.104;1.318;2023-02-15T03:14:33;89;80;
47705;PMS5003;33471;52.104;1.318;2023-02-15T03:17:00;92;83;
47705;PMS5003;33471;52.104;1.318;2023-02-15T03:19:31;97;82;
47705;PMS5003;33471;52.104;1.318;2023-02-15T03:22:03;107;85;
47705;PMS5003;33471;52.104;1.318;2023-02-15T03:24:34;77;70;
47705;PMS5003;33471;52.104;1.318;2023-02-15T03:27:04;73;67;
47705;PMS5003;33471;52.104;1.318;2023-02-15T03:29:37;83;72;
47705;PMS5003;33471;52.104;1.318;2023-02-15T03:32:07;67;65;
47705;PMS5003;33471;52.104;1.318;2023-02-15T03:34:37;81;74;
47705;PMS5003;33471;52.104;1.318;2023-02-15T03:37:06;73;71;
47705;PMS5003;33471;52.104;1.318;2023-02-15T03:39:42;84;77;
47705;PMS5003;33471;52.104;1.318;2023-02-15T03:42:16;92;78;
47705;PMS5003;33471;52.104;1.318;2023-02-15T03:44:51;82;73;
47705;PMS5003;33471;52.104;1.318;2023-02-15T03:47:25;78;73;
47705;PMS5003;33471;52.104;1.318;2023-02-15T03:49:57;72;67;
47705;PMS5003;33471;52.104;1.318;2023-02-15T03:52:28;69;63;
47705;PMS5003;33471;52.104;1.318;2023-02-15T03:54:58;81;72;
47705;PMS5003;33471;52.104;1.318;2023-02-15T03:57:27;79;73;
47705;PMS5003;33471;52.104;1.318;2023-02-15T03:59:56;83;72;
47705;PMS5003;33471;52.104;1.318;2023-02-15T04:02:24;82;74;
47705;PMS5003;33471;52.104;1.318;2023-02-15T04:04:58;69;66;
47705;PMS5003;33471;52.104;1.318;2023-02-15T04:07:25;80;70;
47705;PMS5003;33471;52.104;1.318;2023-02-15T04:09:52;83;67;
47705;PMS5003;33471;52.104;1.318;2023-02-15T04:12:20;81;73;
47705;PMS5003;33471;52.104;1.318;2023-02-15T04:14:48;95;82;
47705;PMS5003;33471;52.104;1.318;2023-02-15T04:17:15;94;79;
47705;PMS5003;33471;52.104;1.318;2023-02-15T04:19:42;85;79;
47705;PMS5003;33471;52.104;1.318;2023-02-15T04:22:09;99;91;
47705;PMS5003;33471;52.104;1.318;2023-02-15T04:24:36;112;104;
47705;PMS5003;33471;52.104;1.318;2023-02-15T04:27:04;101;84;
47705;PMS5003;33471;52.104;1.318;2023-02-15T04:29:32;107;98;
47705;PMS5003;33471;52.104;1.318;2023-02-15T04:31:59;96;84;
47705;PMS5003;33471;52.104;1.318;2023-02-15T04:34:27;97;81;
47705;PMS5003;33471;52.104;1.318;2023-02-15T04:36:54;104;88;
47705;PMS5003;33471;52.104;1.318;2023-02-15T04:39:22;78;76;
47705;PMS5003;33471;52.104;1.318;2023-02-15T04:41:49;89;75;
47705;PMS5003;33471;52.104;1.318;2023-02-15T04:44:17;83;80;
47705;PMS5003;33471;52.104;1.318;2023-02-15T04:46:45;89;82;
47705;PMS5003;33471;52.104;1.318;2023-02-15T04:49:12;91;81;
47705;PMS5003;33471;52.104;1.318;2023-02-15T04:51:39;96;82;
47705;PMS5003;33471;52.104;1.318;2023-02-15T04:54:07;86;83;
47705;PMS5003;33471;52.104;1.318;2023-02-15T04:56:34;92;85;
47705;PMS5003;33471;52.104;1.318;2023-02-15T04:59:02;95;85;
47705;PMS5003;33471;52.104;1.318;2023-02-15T05:01:29;91;89;
47705;PMS5003;33471;52.104;1.318;2023-02-15T05:03:56;81;76;
47705;PMS5003;33471;52.104;1.318;2023-02-15T05:06:23;94;89;
47705;PMS5003;33471;52.104;1.318;2023-02-15T05:08:51;96;85;
47705;PMS5003;33471;52.104;1.318;2023-02-15T05:11:18;85;79;
47705;PMS5003;33471;52.104;1.318;2023-02-15T05:13:46;96;85;
47705;PMS5003;33471;52.104;1.318;2023-02-15T05:16:13;89;82;
47705;PMS5003;33471;52.104;1.318;2023-02-15T05:18:41;85;83;
47705;PMS5003;33471;52.104;1.318;2023-02-15T05:21:08;84;80;
47705;PMS5003;33471;52.104;1.318;2023-02-15T05:23:36;94;88;
47705;PMS5003;33471;52.104;1.318;2023-02-15T05:26:03;109;99;
47705;PMS5003;33471;52.104;1.318;2023-02-15T05:28:30;121;97;
47705;PMS5003;33471;52.104;1.318;2023-02-15T05:31:00;109;99;
47705;PMS5003;33471;52.104;1.318;2023-02-15T05:33:30;107;94;
47705;PMS5003;33471;52.104;1.318;2023-02-15T05:35:57;97;91;
47705;PMS5003;33471;52.104;1.318;2023-02-15T05:38:24;110;98;
47705;PMS5003;33471;52.104;1.318;2023-02-15T05:40:51;100;90;
47705;PMS5003;33471;52.104;1.318;2023-02-15T05:43:19;109;98;
47705;PMS5003;33471;52.104;1.318;2023-02-15T05:45:47;112;99;
47705;PMS5003;33471;52.104;1.318;2023-02-15T05:48:16;116;105;
47705;PMS5003;33471;52.104;1.318;2023-02-15T05:50:46;104;92;
47705;PMS5003;33471;52.104;1.318;2023-02-15T05:53:23;116;102;
47705;PMS5003;33471;52.104;1.318;2023-02-15T05:55:50;119;103;
47705;PMS5003;33471;52.104;1.318;2023-02-15T05:58:18;102;89;
47705;PMS5003;33471;52.104;1.318;2023-02-15T06:00:45;81;79;
47705;PMS5003;33471;52.104;1.318;2023-02-15T06:03:13;99;90;
47705;PMS5003;33471;52.104;1.318;2023-02-15T06:05:40;111;96;
47705;PMS5003;33471;52.104;1.318;2023-02-15T06:08:08;91;82;
47705;PMS5003;33471;52.104;1.318;2023-02-15T06:10:36;107;92;
47705;PMS5003;33471;52.104;1.318;2023-02-15T06:13:03;92;84;
47705;PMS5003;33471;52.104;1.318;2023-02-15T06:15:31;98;95;
47705;PMS5003;33471;52.104;1.318;2023-02-15T06:17:58;91;85;
47705;PMS5003;33471;52.104;1.318;2023-02-15T06:20:26;98;87;
47705;PMS5003;33471;52.104;1.318;2023-02-15T06:22:54;90;84;
47705;PMS5003;33471;52.104;1.318;2023-02-15T06:25:21;86;83;
47705;PMS5003;33471;52.104;1.318;2023-02-15T06:27:49;91;82;
47705;PMS5003;33471;52.104;1.318;2023-02-15T06:30:16;92;83;
47705;PMS5003;33471;52.104;1.318;2023-02-15T06:32:44;96;84;
47705;PMS5003;33471;52.104;1.318;2023-02-15T06:35:11;95;84;
47705;PMS5003;33471;52.104;1.318;2023-02-15T06:37:39;90;82;
47705;PMS5003;33471;52.104;1.318;2023-02-15T06:40:07;99;87;
47705;PMS5003;33471;52.104;1.318;2023-02-15T06:42:35;98;85;
47705;PMS5003;33471;52.104;1.318;2023-02-15T06:45:01;93;83;
47705;PMS5003;33471;52.104;1.318;2023-02-15T06:47:29;93;82;
47705;PMS5003;33471;52.104;1.318;2023-02-15T06:49:56;83;79;
47705;PMS5003;33471;52.104;1.318;2023-02-15T06:52:24;81;78;
47705;PMS5003;33471;52.104;1.318;2023-02-15T06:54:51;89;82;
47705;PMS5003;33471;52.104;1.318;2023-02-15T06:57:18;89;78;
47705;PMS5003;33471;52.104;1.318;2023-02-15T06:59:45;94;87;
47705;PMS5003;33471;52.104;1.318;2023-02-15T07:02:13;93;85;
47705;PMS5003;33471;52.104;1.318;2023-02-15T07:04:41;95;86;
47705;PMS5003;33471;52.104;1.318;2023-02-15T07:07:08;99;85;
47705;PMS5003;33471;52.104;1.318;2023-02-15T07:09:37;95;85;
47705;PMS5003;33471;52.104;1.318;2023-02-15T07:12:05;84;77;
47705;PMS5003;33471;52.104;1.318;2023-02-15T07:14:32;98;87;
47705;PMS5003;33471;52.104;1.318;2023-02-15T07:17:00;96;91;
47705;PMS5003;33471;52.104;1.318;2023-02-15T07:19:27;83;81;
47705;PMS5003;33471;52.104;1.318;2023-02-15T07:21:55;89;82;
47705;PMS5003;33471;52.104;1.318;2023-02-15T07:24:23;98;92;
47705;PMS5003;33471;52.104;1.318;2023-02-15T07:26:50;98;84;
47705;PMS5003;33471;52.104;1.318;2023-02-15T07:29:18;85;78;
47705;PMS5003;33471;52.104;1.318;2023-02-15T07:31:45;105;94;
47705;PMS5003;33471;52.104;1.318;2023-02-15T07:34:13;96;93;
47705;PMS5003;33471;52.104;1.318;2023-02-15T07:36:40;102;93;
47705;PMS5003;33471;52.104;1.318;2023-02-15T07:39:07;105;92;
47705;PMS5003;33471;52.104;1.318;2023-02-15T07:41:34;85;80;
47705;PMS5003;33471;52.104;1.318;2023-02-15T07:44:02;97;86;
47705;PMS5003;33471;52.104;1.318;2023-02-15T07:46:29;106;98;
47705;PMS5003;33471;52.104;1.318;2023-02-15T07:48:57;89;83;
47705;PMS5003;33471;52.104;1.318;2023-02-15T07:51:24;114;102;
47705;PMS5003;33471;52.104;1.318;2023-02-15T07:53:51;101;91;
47705;PMS5003;33471;52.104;1.318;2023-02-15T07:56:18;100;92;
47705;PMS5003;33471;52.104;1.318;2023-02-15T07:58:46;102;86;
47705;PMS5003;33471;52.104;1.318;2023-02-15T08:01:13;99;93;
47705;PMS5003;33471;52.104;1.318;2023-02-15T08:03:41;103;97;
47705;PMS5003;33471;52.104;1.318;2023-02-15T08:06:09;107;98;
47705;PMS5003;33471;52.104;1.318;2023-02-15T08:08:37;120;102;
47705;PMS5003;33471;52.104;1.318;2023-02-15T08:11:05;92;88;
47705;PMS5003;33471;52.104;1.318;2023-02-15T08:13:42;110;101;
47705;PMS5003;33471;52.104;1.318;2023-02-15T08:16:10;112;99;
47705;PMS5003;33471;52.104;1.318;2023-02-15T08:18:36;103;94;
47705;PMS5003;33471;52.104;1.318;2023-02-15T08:21:03;103;94;
47705;PMS5003;33471;52.104;1.318;2023-02-15T08:23:31;99;89;
47705;PMS5003;33471;52.104;1.318;2023-02-15T08:25:59;102;95;
47705;PMS5003;33471;52.104;1.318;2023-02-15T08:28:26;104;94;
47705;PMS5003;33471;52.104;1.318;2023-02-15T08:30:53;101;97;
47705;PMS5003;33471;52.104;1.318;2023-02-15T08:33:20;98;93;
47705;PMS5003;33471;52.104;1.318;2023-02-15T08:35:48;101;99;
47705;PMS5003;33471;52.104;1.318;2023-02-15T08:38:15;96;93;
47705;PMS5003;33471;52.104;1.318;2023-02-15T08:40:42;104;96;
47705;PMS5003;33471;52.104;1.318;2023-02-15T08:43:09;110;101;
47705;PMS5003;33471;52.104;1.318;2023-02-15T08:45:37;101;98;
47705;PMS5003;33471;52.104;1.318;2023-02-15T08:48:04;106;92;
47705;PMS5003;33471;52.104;1.318;2023-02-15T08:50:32;104;99;
47705;PMS5003;33471;52.104;1.318;2023-02-15T08:52:59;109;97;
47705;PMS5003;33471;52.104;1.318;2023-02-15T08:55:26;123;109;
47705;PMS5003;33471;52.104;1.318;2023-02-15T08:57:54;124;106;
47705;PMS5003;33471;52.104;1.318;2023-02-15T09:00:23;133;119;
47705;PMS5003;33471;52.104;1.318;2023-02-15T09:02:51;150;131;
47705;PMS5003;33471;52.104;1.318;2023-02-15T09:05:19;169;156;
47705;PMS5003;33471;52.104;1.318;2023-02-15T09:07:46;161;150;
47705;PMS5003;33471;52.104;1.318;2023-02-15T09:10:15;143;136;
47705;PMS5003;33471;52.104;1.318;2023-02-15T09:12:43;139;124;
47705;PMS5003;33471;52.104;1.318;2023-02-15T09:15:11;147;136;
47705;PMS5003;33471;52.104;1.318;2023-02-15T09:17:38;150;128;
47705;PMS5003;33471;52.104;1.318;2023-02-15T09:20:06;136;135;
47705;PMS5003;33471;52.104;1.318;2023-02-15T09:22:35;133;125;
47705;PMS5003;33471;52.104;1.318;2023-02-15T09:25:02;140;129;
47705;PMS5003;33471;52.104;1.318;2023-02-15T09:27:30;157;132;
47705;PMS5003;33471;52.104;1.318;2023-02-15T09:29:57;135;125;
47705;PMS5003;33471;52.104;1.318;2023-02-15T09:32:24;132;116;
47705;PMS5003;33471;52.104;1.318;2023-02-15T09:34:52;140;124;
47705;PMS5003;33471;52.104;1.318;2023-02-15T09:37:20;122;115;
47705;PMS5003;33471;52.104;1.318;2023-02-15T09:39:47;112;106;
47705;PMS5003;33471;52.104;1.318;2023-02-15T09:42:22;125;117;
47705;PMS5003;33471;52.104;1.318;2023-02-15T09:45:05;135;125;
47705;PMS5003;33471;52.104;1.318;2023-02-15T09:47:49;118;105;
47705;PMS5003;33471;52.104;1.318;2023-02-15T09:50:33;114;110;
47705;PMS5003;33471;52.104;1.318;2023-02-15T09:53:14;119;110;
47705;PMS5003;33471;52.104;1.318;2023-02-15T09:56:00;119;108;
47705;PMS5003;33471;52.104;1.318;2023-02-15T09:58:37;114;103;
47705;PMS5003;33471;52.104;1.318;2023-02-15T10:01:12;120;107;
47705;PMS5003;33471;52.104;1.318;2023-02-15T10:03:50;122;105;
47705;PMS5003;33471;52.104;1.318;2023-02-15T10:06:32;113;104;
47705;PMS5003;33471;52.104;1.318;2023-02-15T10:09:10;126;116;
47705;PMS5003;33471;52.104;1.318;2023-02-15T10:11:55;116;101;
47705;PMS5003;33471;52.104;1.318;2023-02-15T10:14:37;119;104;
47705;PMS5003;33471;52.104;1.318;2023-02-15T10:17:24;117;108;
47705;PMS5003;33471;52.104;1.318;2023-02-15T10:20:08;115;103;
47705;PMS5003;33471;52.104;1.318;2023-02-15T10:22:48;124;116;
47705;PMS5003;33471;52.104;1.318;2023-02-15T10:25:33;116;105;
47705;PMS5003;33471;52.104;1.318;2023-02-15T10:28:11;115;97;
47705;PMS5003;33471;52.104;1.318;2023-02-15T10:30:46;109;104;
47705;PMS5003;33471;52.104;1.318;2023-02-15T10:33:20;118;111;
47705;PMS5003;33471;52.104;1.318;2023-02-15T10:36:05;108;102;
47705;PMS5003;33471;52.104;1.318;2023-02-15T10:38:44;119;107;
47705;PMS5003;33471;52.104;1.318;2023-02-15T10:41:24;116;109;
47705;PMS5003;33471;52.104;1.318;2023-02-15T10:44:09;107;100;
47705;PMS5003;33471;52.104;1.318;2023-02-15T10:46:52;99;89;
47705;PMS5003;33471;52.104;1.318;2023-02-15T10:49:36;98;91;
47705;PMS5003;33471;52.104;1.318;2023-02-15T10:52:20;127;109;
47705;PMS5003;33471;52.104;1.318;2023-02-15T10:54:57;109;99;
47705;PMS5003;33471;52.104;1.318;2023-02-15T10:57:34;94;90;
47705;PMS5003;33471;52.104;1.318;2023-02-15T11:00:12;97;94;
47705;PMS5003;33471;52.104;1.318;2023-02-15T11:02:54;90;86;
47705;PMS5003;33471;52.104;1.318;2023-02-15T11:05:38;87;84;
47705;PMS5003;33471;52.104;1.318;2023-02-15T11:08:11;103;94;
47705;PMS5003;33471;52.104;1.318;2023-02-15T11:10:40;94;85;
47705;PMS5003;33471;52.104;1.318;2023-02-15T11:13:11;93;88;
47705;PMS5003;33471;52.104;1.318;2023-02-15T11:15:48;89;76;
47705;PMS5003;33471;52.104;1.318;2023-02-15T11:18:21;96;86;
47705;PMS5003;33471;52.104;1.318;2023-02-15T11:20:55;90;79;
47705;PMS5003;33471;52.104;1.318;2023-02-15T11:23:26;84;78;
47705;PMS5003;33471;52.104;1.318;2023-02-15T11:25:56;81;76;
47705;PMS5003;33471;52.104;1.318;2023-02-15T11:28:27;90;79;
47705;PMS5003;33471;52.104;1.318;2023-02-15T11:30:58;97;91;
47705;PMS5003;33471;52.104;1.318;2023-02-15T11:33:33;79;74;
47705;PMS5003;33471;52.104;1.318;2023-02-15T11:36:06;78;72;
47705;PMS5003;33471;52.104;1.318;2023-02-15T11:38:38;78;74;
47705;PMS5003;33471;52.104;1.318;2023-02-15T11:41:07;74;70;
47705;PMS5003;33471;52.104;1.318;2023-02-15T11:43:38;82;77;
47705;PMS5003;33471;52.104;1.318;2023-02-15T11:46:10;88;76;
47705;PMS5003;33471;52.104;1.318;2023-02-15T11:48:39;81;75;
47705;PMS5003;33471;52.104;1.318;2023-02-15T11:51:08;89;84;
47705;PMS5003;33471;52.104;1.318;2023-02-15T11:53:40;96;84;
47705;PMS5003;33471;52.104;1.318;2023-02-15T11:56:12;77;71;
47705;PMS5003;33471;52.104;1.318;2023-02-15T11:58:43;68;67;
47705;PMS5003;33471;52.104;1.318;2023-02-15T12:01:15;78;75;
47705;PMS5003;33471;52.104;1.318;2023-02-15T12:03:47;91;80;
47705;PMS5003;33471;52.104;1.318;2023-02-15T12:06:18;76;74;
47705;PMS5003;33471;52.104;1.318;2023-02-15T12:08:52;84;79;
47705;PMS5003;33471;52.104;1.318;2023-02-15T12:11:29;76;75;
47705;PMS5003;33471;52.104;1.318;2023-02-15T12:14:01;89;78;
47705;PMS5003;33471;52.104;1.318;2023-02-15T12:16:32;84;80;
47705;PMS5003;33471;52.104;1.318;2023-02-15T12:19:11;79;72;
47705;PMS5003;33471;52.104;1.318;2023-02-15T12:21:51;81;74;
47705;PMS5003;33471;52.104;1.318;2023-02-15T12:24:20;75;69;
47705;PMS5003;33471;52.104;1.318;2023-02-15T12:26:58;80;73;
47705;PMS5003;33471;52.104;1.318;2023-02-15T12:29:29;72;69;
47705;PMS5003;33471;52.104;1.318;2023-02-15T12:32:01;78;73;
47705;PMS5003;33471;52.104;1.318;2023-02-15T12:34:31;86;80;
47705;PMS5003;33471;52.104;1.318;2023-02-15T12:37:07;74;66;
47705;PMS5003;33471;52.104;1.318;2023-02-15T12:39:37;83;77;
47705;PMS5003;33471;52.104;1.318;2023-02-15T12:42:19;77;71;
47705;PMS5003;33471;52.104;1.318;2023-02-15T12:44:56;78;72;
47705;PMS5003;33471;52.104;1.318;2023-02-15T12:47:26;79;70;
47705;PMS5003;33471;52.104;1.318;2023-02-15T12:50:26;84;69;
47705;PMS5003;33471;52.104;1.318;2023-02-15T12:53:05;82;72;
47705;PMS5003;33471;52.104;1.318;2023-02-15T12:55:34;62;58;
47705;PMS5003;33471;52.104;1.318;2023-02-15T12:58:06;71;66;
47705;PMS5003;33471;52.104;1.318;2023-02-15T13:00:34;73;70;
47705;PMS5003;33471;52.104;1.318;2023-02-15T13:03:01;77;68;
47705;PMS5003;33471;52.104;1.318;2023-02-15T13:05:30;64;63;
47705;PMS5003;33471;52.104;1.318;2023-02-15T13:08:02;72;64;
47705;PMS5003;33471;52.104;1.318;2023-02-15T13:10:37;73;67;
47705;PMS5003;33471;52.104;1.318;2023-02-15T13:13:09;66;62;
47705;PMS5003;33471;52.104;1.318;2023-02-15T13:15:38;73;69;
47705;PMS5003;33471;52.104;1.318;2023-02-15T13:18:12;67;65;
47705;PMS5003;33471;52.104;1.318;2023-02-15T13:20:42;73;69;
47705;PMS5003;33471;52.104;1.318;2023-02-15T13:23:17;72;63;
47705;PMS5003;33471;52.104;1.318;2023-02-15T13:25:50;65;61;
47705;PMS5003;33471;52.104;1.318;2023-02-15T13:28:18;70;64;
47705;PMS5003;33471;52.104;1.318;2023-02-15T13:30:49;55;54;
47705;PMS5003;33471;52.104;1.318;2023-02-15T13:33:19;64;61;
47705;PMS5003;33471;52.104;1.318;2023-02-15T13:35:52;67;64;
47705;PMS5003;33471;52.104;1.318;2023-02-15T13:38:33;70;61;
47705;PMS5003;33471;52.104;1.318;2023-02-15T13:41:14;72;64;
47705;PMS5003;33471;52.104;1.318;2023-02-15T13:43:49;65;60;
47705;PMS5003;33471;52.104;1.318;2023-02-15T13:46:25;71;68;
47705;PMS5003;33471;52.104;1.318;2023-02-15T13:49:11;65;63;
47705;PMS5003;33471;52.104;1.318;2023-02-15T13:51:45;75;63;
47705;PMS5003;33471;52.104;1.318;2023-02-15T13:54:28;66;62;
47705;PMS5003;33471;52.104;1.318;2023-02-15T13:57:21;74;64;
47705;PMS5003;33471;52.104;1.318;2023-02-15T14:00:11;57;57;
47705;PMS5003;33471;52.104;1.318;2023-02-15T14:02:50;75;66;
47705;PMS5003;33471;52.104;1.318;2023-02-15T14:05:41;67;61;
47705;PMS5003;33471;52.104;1.318;2023-02-15T14:08:27;69;65;
47705;PMS5003;33471;52.104;1.318;2023-02-15T14:11:06;56;55;
47705;PMS5003;33471;52.104;1.318;2023-02-15T14:14:15;66;63;
47705;PMS5003;33471;52.104;1.318;2023-02-15T14:17:00;67;61;
47705;PMS5003;33471;52.104;1.318;2023-02-15T14:19:38;65;62;
47705;PMS5003;33471;52.104;1.318;2023-02-15T14:22:14;64;61;
47705;PMS5003;33471;52.104;1.318;2023-02-15T14:24:52;61;55;
47705;PMS5003;33471;52.104;1.318;2023-02-15T14:27:34;75;61;
47705;PMS5003;33471;52.104;1.318;2023-02-15T14:30:13;62;59;
47705;PMS5003;33471;52.104;1.318;2023-02-15T14:32:48;67;62;
47705;PMS5003;33471;52.104;1.318;2023-02-15T14:35:20;59;55;
47705;PMS5003;33471;52.104;1.318;2023-02-15T14:37:52;60;56;
47705;PMS5003;33471;52.104;1.318;2023-02-15T14:40:30;63;57;
47705;PMS5003;33471;52.104;1.318;2023-02-15T14:43:06;69;62;
47705;PMS5003;33471;52.104;1.318;2023-02-15T14:45:39;69;66;
47705;PMS5003;33471;52.104;1.318;2023-02-15T14:48:20;63;61;
47705;PMS5003;33471;52.104;1.318;2023-02-15T14:50:51;63;62;
47705;PMS5003;33471;52.104;1.318;2023-02-15T14:53:35;63;58;
47705;PMS5003;33471;52.104;1.318;2023-02-15T14:56:05;66;66;
47705;PMS5003;33471;52.104;1.318;2023-02-15T14:58:41;61;56;
47705;PMS5003;33471;52.104;1.318;2023-02-15T15:01:24;69;66;
47705;PMS5003;33471;52.104;1.318;2023-02-15T15:03:55;63;59;
47705;PMS5003;33471;52.104;1.318;2023-02-15T15:06:28;58;54;
47705;PMS5003;33471;52.104;1.318;2023-02-15T15:08:58;64;56;
47705;PMS5003;33471;52.104;1.318;2023-02-15T15:11:40;73;62;
47705;PMS5003;33471;52.104;1.318;2023-02-15T15:14:36;77;67;
47705;PMS5003;33471;52.104;1.318;2023-02-15T15:17:06;61;60;
47705;PMS5003;33471;52.104;1.318;2023-02-15T15:19:57;69;63;
47705;PMS5003;33471;52.104;1.318;2023-02-15T15:22:25;67;58;
47705;PMS5003;33471;52.104;1.318;2023-02-15T15:24:54;75;68;
47705;PMS5003;33471;52.104;1.318;2023-02-15T15:27:55;67;64;
47705;PMS5003;33471;52.104;1.318;2023-02-15T15:30:54;69;64;
47705;PMS5003;33471;52.104;1.318;2023-02-15T15:34:01;72;66;
47705;PMS5003;33471;52.104;1.318;2023-02-15T15:36:53;69;62;
47705;PMS5003;33471;52.104;1.318;2023-02-15T15:37:40;69;62;
47705;PMS5003;33471;52.104;1.318;2023-02-15T15:40:35;73;66;
47705;PMS5003;33471;52.104;1.318;2023-02-15T15:43:29;65;63;
47705;PMS5003;33471;52.104;1.318;2023-02-15T15:46:19;63;61;
47705;PMS5003;33471;52.104;1.318;2023-02-15T15:49:00;60;59;
47705;PMS5003;33471;52.104;1.318;2023-02-15T15:51:30;64;62;
47705;PMS5003;33471;52.104;1.318;2023-02-15T15:53:59;66;62;
47705;PMS5003;33471;52.104;1.318;2023-02-15T15:56:29;68;63;
47705;PMS5003;33471;52.104;1.318;2023-02-15T15:59:01;73;65;
47705;PMS5003;33471;52.104;1.318;2023-02-15T16:01:34;68;62;
47705;PMS5003;33471;52.104;1.318;2023-02-15T16:04:05;68;65;
47705;PMS5003;33471;52.104;1.318;2023-02-15T16:06:39;62;60;
47705;PMS5003;33471;52.104;1.318;2023-02-15T16:09:16;67;62;
47705;PMS5003;33471;52.104;1.318;2023-02-15T16:11:45;69;61;
47705;PMS5003;33471;52.104;1.318;2023-02-15T16:14:14;62;58;
47705;PMS5003;33471;52.104;1.318;2023-02-15T16:16:46;63;59;
47705;PMS5003;33471;52.104;1.318;2023-02-15T16:19:18;67;60;
47705;PMS5003;33471;52.104;1.318;2023-02-15T16:21:48;65;61;
47705;PMS5003;33471;52.104;1.318;2023-02-15T16:24:21;70;68;
47705;PMS5003;33471;52.104;1.318;2023-02-15T16:27:14;66;61;
47705;PMS5003;33471;52.104;1.318;2023-02-15T16:29:51;72;62;
47705;PMS5003;33471;52.104;1.318;2023-02-15T16:32:20;71;65;
47705;PMS5003;33471;52.104;1.318;2023-02-15T16:34:50;73;65;
47705;PMS5003;33471;52.104;1.318;2023-02-15T16:37:19;63;59;
47705;PMS5003;33471;52.104;1.318;2023-02-15T16:39:48;60;57;
47705;PMS5003;33471;52.104;1.318;2023-02-15T16:42:16;64;59;
47705;PMS5003;33471;52.104;1.318;2023-02-15T16:44:45;70;62;